Weather at Cognac-Châteaubernard (BA 709) Air Base

Public forecast

Using degrees Celsius for public forecast. Weather courtesy of forecast.io.

Current aviation weather report (METAR) for Cognac-Châteaubernard (BA 709) Air Base

Retrieved 2021/10/23 03:30 UTC (17 minutes ago):

LFBG 230330Z AUTO 02002KT CAVOK 04/03 Q1026

Aviation forecast (TAF) for Cognac-Châteaubernard (BA 709) Air Base

Forecast is more than 12 hours old.

Retrieved 2021/10/22 15:33 UTC (12 hours ago):

TAF EGQS 221331Z 2215/2309 28010KT 9999 FEW040 TAF LFBG 221325Z 2213/2309 CNL